Time;durP1;ratioP1;P1;durP2;ratioP2;P2;SDS_P1;SDS_P2;PMS_P1;PMS_P2;Temp;Humidity;BMP_temperature;BMP_pressure;BME280_temperature;BME280_humidity;BME280_pressure;Samples;Min_cycle;Max_cycle;Signal;HPM_P1;HPM_P2
2024/02/12 00:01:58;;;;;;;12.60;8.50;;;;;;;7.75;77.60;97452.88;108887;1262;58740;-27
2024/02/12 00:04:27;;;;;;;15.00;9.80;;;;;;;8.21;77.69;97457.16;108735;1262;72952;-27
2024/02/12 00:06:56;;;;;;;15.40;10.00;;;;;;;8.72;76.12;97450.17;108880;1262;73030;-27
2024/02/12 00:09:24;;;;;;;16.30;11.00;;;;;;;8.78;75.79;97451.80;108608;1263;72652;-27
2024/02/12 00:11:54;;;;;;;19.70;11.10;;;;;;;8.63;76.30;97447.27;108613;1263;58826;-27
2024/02/12 00:14:22;;;;;;;15.10;11.10;;;;;;;8.65;76.32;97447.56;108874;1263;58787;-27
2024/02/12 00:16:50;;;;;;;19.60;13.40;;;;;;;8.38;77.20;97445.89;108844;1262;73013;-27
2024/02/12 00:19:18;;;;;;;11.10;7.80;;;;;;;8.07;78.13;97448.09;108850;1262;73712;-27
2024/02/12 00:21:48;;;;;;;13.90;9.70;;;;;;;8.54;77.83;97452.81;108782;1262;71282;-27
2024/02/12 00:24:17;;;;;;;22.80;14.20;;;;;;;9.02;75.63;97461.05;108837;1263;58783;-27
2024/02/12 00:26:44;;;;;;;27.00;13.60;;;;;;;9.06;75.08;97466.68;108779;1262;60040;-28
2024/02/12 00:29:13;;;;;;;39.30;18.10;;;;;;;8.89;75.72;97461.45;108768;1265;73031;-27
2024/02/12 00:31:42;;;;;;;32.40;15.60;;;;;;;8.71;76.14;97457.89;108840;1262;74387;-27
2024/02/12 00:34:10;;;;;;;35.70;18.10;;;;;;;8.60;76.77;97454.14;109297;1254;72698;-27
2024/02/12 00:36:37;;;;;;;21.20;10.70;;;;;;;8.44;77.53;97447.33;109286;1256;60522;-27
2024/02/12 00:39:09;;;;;;;13.40;8.40;;;;;;;9.01;77.02;97440.95;109185;1260;60082;-27
2024/02/12 00:41:37;;;;;;;14.60;8.50;;;;;;;9.53;74.98;97435.13;109309;1254;71808;-28
2024/02/12 00:44:05;;;;;;;17.10;9.00;;;;;;;9.55;74.67;97431.69;109261;1254;74287;-27
2024/02/12 00:46:32;;;;;;;16.50;9.20;;;;;;;9.33;75.13;97433.05;109301;1254;72689;-27
2024/02/12 00:49:00;;;;;;;16.80;9.90;;;;;;;9.10;75.69;97436.91;109157;1257;58791;-27
2024/02/12 00:51:28;;;;;;;15.50;9.90;;;;;;;8.81;76.90;97433.33;109333;1255;58839;-27
2024/02/12 00:53:56;;;;;;;12.90;8.20;;;;;;;8.96;77.33;97434.30;109351;1254;72018;-27
2024/02/12 00:56:24;;;;;;;16.00;9.20;;;;;;;9.42;75.69;97433.85;109338;1254;72393;-27
2024/02/12 00:58:52;;;;;;;17.00;10.40;;;;;;;9.35;75.58;97422.95;109174;1254;71489;-27
2024/02/12 01:01:19;;;;;;;15.10;9.90;;;;;;;9.32;75.60;97418.73;109268;1257;58758;-27
2024/02/12 01:03:47;;;;;;;15.40;9.90;;;;;;;9.17;75.56;97413.38;109260;1256;58748;-27
2024/02/12 01:06:16;;;;;;;15.50;9.40;;;;;;;8.93;75.91;97414.15;109269;1255;73117;-27
2024/02/12 01:08:44;;;;;;;12.70;7.90;;;;;;;9.33;75.67;97417.81;109230;1257;73192;-28
2024/02/12 01:11:14;;;;;;;13.90;9.10;;;;;;;9.73;74.11;97416.09;109217;1256;72636;-27
2024/02/12 01:13:44;;;;;;;16.90;9.80;;;;;;;9.73;73.65;97415.09;109242;1256;58849;-27
2024/02/12 01:16:11;;;;;;;14.70;9.40;;;;;;;9.55;73.68;97417.84;109142;1258;58760;-27
2024/02/12 01:18:42;;;;;;;16.00;10.80;;;;;;;9.22;74.31;97412.19;109249;1256;73051;-27
2024/02/12 01:21:09;;;;;;;17.60;11.00;;;;;;;8.86;75.45;97411.73;109250;1255;74304;-27
2024/02/12 01:23:37;;;;;;;11.70;8.10;;;;;;;8.53;76.67;97404.97;109113;1260;72679;-27
2024/02/12 01:26:05;;;;;;;9.50;6.70;;;;;;;9.01;76.20;97410.05;109232;1256;58876;-27
2024/02/12 01:28:35;;;;;;;14.80;9.40;;;;;;;9.51;73.99;97414.04;109275;1256;58746;-27
2024/02/12 01:31:03;;;;;;;15.10;9.30;;;;;;;9.45;73.20;97418.34;109166;1256;73094;-27
2024/02/12 01:33:31;;;;;;;14.90;10.80;;;;;;;9.09;73.86;97425.77;109155;1256;74319;-28
2024/02/12 01:36:00;;;;;;;15.60;9.70;;;;;;;8.68;74.96;97424.10;109246;1256;72660;-27
2024/02/12 01:38:27;;;;;;;17.20;10.90;;;;;;;8.34;75.70;97425.52;109129;1256;58875;-27
2024/02/12 01:40:55;;;;;;;8.70;6.90;;;;;;;8.03;76.73;97422.75;109223;1256;59997;-27
2024/02/12 01:43:30;;;;;;;10.40;6.90;;;;;;;8.45;76.63;97418.58;109249;1256;72014;-27
2024/02/12 01:45:59;;;;;;;9.90;7.00;;;;;;;9.00;75.25;97403.82;109155;1256;73004;-28
2024/02/12 01:48:26;;;;;;;9.60;7.50;;;;;;;8.89;74.42;97389.95;109224;1256;72678;-27
2024/02/12 01:50:54;;;;;;;8.90;7.20;;;;;;;8.61;75.27;97398.54;109198;1257;60036;-27
2024/02/12 01:53:22;;;;;;;13.60;8.00;;;;;;;8.47;75.13;97399.82;109151;1256;58771;-27
2024/02/12 01:55:50;;;;;;;15.00;8.60;;;;;;;8.29;75.62;97398.01;109246;1256;73562;-28
2024/02/12 01:58:18;;;;;;;7.60;5.70;;;;;;;8.06;76.18;97387.42;109127;1255;73088;-27
2024/02/12 02:00:48;;;;;;;9.00;6.10;;;;;;;8.55;75.86;97388.68;109217;1255;72686;-27
2024/02/12 02:03:18;;;;;;;8.30;6.50;;;;;;;9.01;73.94;97392.96;109050;1257;60133;-28
2024/02/12 02:05:46;;;;;;;8.40;6.40;;;;;;;8.89;73.77;97399.00;109206;1256;59558;-27
2024/02/12 02:08:16;;;;;;;8.60;6.00;;;;;;;8.59;73.37;97409.95;109134;1256;73091;-28
2024/02/12 02:10:48;;;;;;;11.70;6.20;;;;;;;8.26;73.54;97409.70;109208;1256;73030;-28
2024/02/12 02:13:16;;;;;;;16.80;10.30;;;;;;;7.87;74.40;97401.54;109126;1256;72659;-28
2024/02/12 02:15:44;;;;;;;9.70;7.10;;;;;;;7.49;76.49;97395.95;109122;1256;61607;-28
2024/02/12 02:18:12;;;;;;;9.50;7.80;;;;;;;7.87;76.45;97393.02;109147;1256;60064;-27
2024/02/12 02:20:39;;;;;;;9.60;7.60;;;;;;;8.36;74.54;97387.45;109180;1257;73026;-27
2024/02/12 02:23:07;;;;;;;10.50;8.10;;;;;;;8.40;74.31;97381.20;109204;1256;74336;-27
2024/02/12 02:25:35;;;;;;;10.80;7.80;;;;;;;8.25;74.58;97376.45;109186;1257;70399;-27
2024/02/12 02:28:04;;;;;;;11.10;7.60;;;;;;;8.05;74.84;97389.52;109145;1256;60033;-27
2024/02/12 02:30:32;;;;;;;16.20;10.80;;;;;;;7.73;76.09;97401.39;109140;1256;58773;-27
2024/02/12 02:33:00;;;;;;;19.80;10.90;;;;;;;7.74;77.24;97399.77;109207;1257;71765;-27
2024/02/12 02:35:30;;;;;;;15.10;9.30;;;;;;;8.39;75.48;97402.69;109213;1256;72442;-27
2024/02/12 02:38:01;;;;;;;15.70;10.50;;;;;;;8.60;74.33;97401.90;109148;1256;72657;-30
2024/02/12 02:40:29;;;;;;;19.80;10.10;;;;;;;8.48;73.92;97401.86;109187;1255;58773;-28
2024/02/12 02:43:00;;;;;;;14.20;9.00;;;;;;;8.22;74.29;97402.33;109258;1256;60098;-27
2024/02/12 02:45:28;;;;;;;16.30;9.50;;;;;;;7.83;75.12;97402.77;109209;1256;73257;-27
2024/02/12 02:47:56;;;;;;;10.60;7.40;;;;;;;7.44;76.36;97397.67;109217;1256;74401;-27
2024/02/12 02:50:24;;;;;;;12.90;8.20;;;;;;;7.81;76.01;97400.16;109201;1256;72664;-27
2024/02/12 02:52:53;;;;;;;10.50;8.00;;;;;;;8.17;73.98;97407.23;109099;1257;59006;-27
2024/02/12 02:55:22;;;;;;;14.30;8.60;;;;;;;8.06;73.37;97403.17;109134;1256;58733;-27
2024/02/12 02:57:51;;;;;;;13.10;8.90;;;;;;;7.77;74.01;97397.09;109133;1256;73501;-27
2024/02/12 03:00:19;;;;;;;17.30;10.80;;;;;;;7.51;74.92;97394.23;109082;1256;74325;-27
2024/02/12 03:02:50;;;;;;;16.60;11.50;;;;;;;7.27;75.73;97390.05;109173;1257;72655;-27
2024/02/12 03:05:17;;;;;;;13.80;10.10;;;;;;;7.22;77.63;97384.13;109093;1257;61658;-28
2024/02/12 03:07:48;;;;;;;16.10;10.90;;;;;;;7.85;75.85;97387.05;109176;1256;58704;-28
2024/02/12 03:10:16;;;;;;;18.80;9.60;;;;;;;8.00;74.82;97393.00;109052;1257;71748;-27
2024/02/12 03:12:45;;;;;;;12.90;9.20;;;;;;;7.86;75.11;97390.05;109166;1256;73026;-28
2024/02/12 03:15:14;;;;;;;13.60;8.20;;;;;;;7.61;75.98;97392.21;109000;1256;70459;-28
2024/02/12 03:17:43;;;;;;;12.40;8.70;;;;;;;7.32;77.09;97393.60;109118;1256;60385;-28
2024/02/12 03:20:11;;;;;;;15.10;6.90;;;;;;;7.42;77.33;97389.85;109142;1257;60171;-28
2024/02/12 03:22:40;;;;;;;11.30;7.20;;;;;;;7.90;75.51;97392.20;109112;1257;72993;-28
2024/02/12 03:25:10;;;;;;;9.90;7.90;;;;;;;7.86;75.01;97401.13;109054;1257;74805;-27
2024/02/12 03:27:38;;;;;;;13.40;8.50;;;;;;;7.55;76.29;97415.27;109091;1257;71369;-27
2024/02/12 03:30:07;;;;;;;11.50;8.30;;;;;;;7.41;77.14;97423.48;109100;1256;60025;-28
2024/02/12 03:32:35;;;;;;;12.10;6.00;;;;;;;7.26;77.65;97427.09;109086;1257;59980;-28
2024/02/12 03:35:04;;;;;;;7.70;6.00;;;;;;;7.66;77.69;97432.56;109111;1256;73821;-28
2024/02/12 03:37:32;;;;;;;9.50;6.00;;;;;;;8.20;75.94;97436.72;109070;1256;73799;-28
2024/02/12 03:40:00;;;;;;;9.30;6.50;;;;;;;8.37;75.03;97445.08;109118;1256;71338;-28
2024/02/12 03:42:27;;;;;;;9.10;6.70;;;;;;;8.22;75.11;97444.11;109100;1257;58785;-28
2024/02/12 03:44:55;;;;;;;9.30;7.40;;;;;;;8.06;75.23;97438.59;109160;1256;58897;-27
2024/02/12 03:47:37;;;;;;;10.00;7.10;;;;;;;7.87;75.49;97433.44;109125;1256;73848;-27
2024/02/12 04:01:14;;;;;;;7.30;5.70;;;;;;;8.05;73.24;97436.60;109121;1257;72560;-28
2024/02/12 04:03:42;;;;;;;9.00;6.00;;;;;;;7.79;74.20;97431.41;109111;1257;74279;-28
2024/02/12 04:06:12;;;;;;;10.60;6.70;;;;;;;7.45;75.51;97421.17;109100;1257;72660;-28
2024/02/12 04:08:42;;;;;;;7.10;5.60;;;;;;;7.53;75.43;97431.83;109147;1257;60024;-28
2024/02/12 04:11:10;;;;;;;9.90;5.90;;;;;;;7.86;73.07;97429.38;109110;1258;58744;-28
2024/02/12 04:13:38;;;;;;;7.50;6.30;;;;;;;7.66;73.49;97433.74;109123;1257;72540;-28
2024/02/12 04:16:09;;;;;;;11.80;7.20;;;;;;;7.52;74.12;97437.77;109130;1257;74293;-28
2024/02/12 04:18:37;;;;;;;10.00;7.20;;;;;;;7.30;74.29;97440.17;109012;1257;71132;-28
2024/02/12 04:21:08;;;;;;;14.20;8.90;;;;;;;7.10;74.86;97437.05;109019;1257;58790;-28
2024/02/12 04:23:37;;;;;;;7.50;5.30;;;;;;;7.01;76.06;97437.11;109162;1257;60028;-27
2024/02/12 04:26:07;;;;;;;11.60;7.30;;;;;;;7.69;74.29;97431.67;109098;1257;72636;-28
2024/02/12 04:28:39;;;;;;;10.30;6.90;;;;;;;8.10;73.03;97435.96;109132;1257;74305;-28
2024/02/12 04:31:07;;;;;;;12.10;7.50;;;;;;;8.01;72.74;97425.88;108986;1257;72692;-28
2024/02/12 04:33:35;;;;;;;12.80;7.20;;;;;;;7.85;72.88;97430.40;109105;1257;59175;-28
2024/02/12 04:36:03;;;;;;;18.00;8.50;;;;;;;7.51;73.64;97426.98;109135;1256;59990;-27
2024/02/12 04:38:33;;;;;;;20.10;9.80;;;;;;;7.23;74.35;97424.41;109058;1257;73878;-27
2024/02/12 04:41:01;;;;;;;13.10;7.40;;;;;;;6.86;75.76;97420.77;109120;1257;75123;-28
2024/02/12 04:43:29;;;;;;;13.30;8.50;;;;;;;7.24;74.08;97418.13;109144;1257;72610;-27
2024/02/12 04:45:57;;;;;;;13.70;10.20;;;;;;;7.63;72.39;97414.83;109097;1257;59314;-28
2024/02/12 04:48:25;;;;;;;25.10;16.70;;;;;;;7.66;72.27;97413.21;109123;1258;58827;-28
2024/02/12 04:50:53;;;;;;;17.90;12.10;;;;;;;7.52;72.70;97420.91;109043;1259;73809;-28
2024/02/12 04:53:21;;;;;;;17.10;13.10;;;;;;;7.29;73.14;97424.59;109098;1257;73066;-28
2024/02/12 04:55:48;;;;;;;20.80;13.50;;;;;;;7.10;73.79;97427.33;109052;1257;71386;-28
2024/02/12 04:58:16;;;;;;;13.60;9.00;;;;;;;6.88;74.07;97427.27;109108;1257;59332;-28
2024/02/12 05:00:44;;;;;;;12.90;8.10;;;;;;;6.62;74.45;97424.00;109149;1257;60005;-27
2024/02/12 05:03:12;;;;;;;9.80;6.40;;;;;;;7.06;74.51;97426.13;109080;1260;72574;-27
2024/02/12 05:05:40;;;;;;;24.40;12.90;;;;;;;7.66;72.84;97426.29;109042;1259;74342;-28
2024/02/12 05:08:08;;;;;;;29.60;15.70;;;;;;;7.72;72.79;97428.81;108990;1260;72702;-27
2024/02/12 05:10:37;;;;;;;15.40;9.80;;;;;;;7.58;72.88;97431.33;108964;1258;58778;-28
2024/02/12 05:13:05;;;;;;;17.60;8.30;;;;;;;7.34;72.74;97425.45;108968;1258;58781;-27
2024/02/12 05:15:34;;;;;;;19.00;9.50;;;;;;;7.01;72.73;97432.67;109042;1259;73881;-28
2024/02/12 05:22:32;;;;;;;21.50;10.20;;;;;;;6.71;72.78;97441.65;109016;1260;72987;-28
2024/02/12 05:23:43;;;;;;;10.70;7.80;;;;;;;7.00;73.62;97449.84;109088;1260;60248;-28
2024/02/12 05:26:12;;;;;;;6.80;5.10;;;;;;;7.54;72.70;97446.64;109041;1258;60064;-28
2024/02/12 05:28:39;;;;;;;6.80;5.40;;;;;;;7.57;72.02;97443.17;109047;1259;74073;-28
2024/02/12 05:31:08;;;;;;;7.30;5.30;;;;;;;7.31;71.55;97440.10;109098;1258;74010;-28
2024/02/12 05:33:36;;;;;;;10.20;7.20;;;;;;;7.15;72.38;97441.06;109022;1259;72653;-28
2024/02/12 05:36:06;;;;;;;18.70;12.00;;;;;;;6.94;72.38;97439.54;109069;1260;60080;-28
2024/02/12 05:38:34;;;;;;;37.40;16.00;;;;;;;6.63;72.88;97433.23;109044;1259;60041;-28
2024/02/12 05:41:02;;;;;;;19.70;10.30;;;;;;;6.35;73.61;97431.72;108957;1260;72636;-28
2024/02/12 05:43:30;;;;;;;16.70;10.10;;;;;;;6.81;73.80;97432.02;109087;1260;73229;-28
2024/02/12 05:45:58;;;;;;;14.80;10.10;;;;;;;7.22;72.49;97429.04;108933;1259;71458;-28
2024/02/12 05:48:26;;;;;;;13.10;7.90;;;;;;;6.99;72.78;97424.77;108984;1263;60095;-28
2024/02/12 05:50:55;;;;;;;12.00;8.80;;;;;;;6.61;73.23;97422.20;109060;1259;58755;-28
2024/02/12 05:53:23;;;;;;;12.70;9.30;;;;;;;6.24;73.41;97414.81;108966;1260;73858;-28
2024/02/12 05:55:52;;;;;;;17.30;11.70;;;;;;;5.89;74.85;97415.74;108999;1259;73102;-28
2024/02/12 05:58:21;;;;;;;14.80;11.60;;;;;;;5.69;75.98;97416.60;108963;1259;71375;-28
2024/02/12 06:00:49;;;;;;;11.00;7.70;;;;;;;5.47;76.97;97418.54;109007;1259;60986;-28
2024/02/12 06:03:18;;;;;;;14.10;9.60;;;;;;;5.94;76.94;97425.13;109064;1259;60086;-28
2024/02/12 06:05:51;;;;;;;15.60;10.40;;;;;;;6.54;74.83;97430.37;108951;1260;73954;-28
2024/02/12 06:08:20;;;;;;;;;;;;;;;6.67;74.47;97433.80;108932;1260;74224;-28
2024/02/12 06:10:51;;;;;;;14.60;8.40;;;;;;;6.42;73.97;97436.64;108936;1259;71342;-28
2024/02/12 06:13:21;;;;;;;15.00;8.40;;;;;;;6.21;73.07;97436.24;108912;1259;58846;-28
2024/02/12 06:15:51;;;;;;;47.50;20.10;;;;;;;5.98;73.93;97438.38;108873;1259;58801;-28
2024/02/12 06:18:22;;;;;;;30.00;14.30;;;;;;;5.75;74.68;97441.26;108915;1259;73954;-28
2024/02/12 06:20:53;;;;;;;19.50;10.60;;;;;;;5.48;75.69;97448.72;108941;1259;74706;-28
2024/02/12 06:23:25;;;;;;;59.70;27.40;;;;;;;6.01;75.55;97452.50;108902;1259;71515;-28
2024/02/12 06:25:58;;;;;;;23.60;14.00;;;;;;;6.70;73.96;97456.90;108956;1260;60070;-28
2024/02/12 06:28:28;;;;;;;108.00;38.80;;;;;;;6.82;73.17;97460.60;108955;1258;58878;-28
2024/02/12 06:31:00;;;;;;;84.50;30.70;;;;;;;6.71;73.48;97460.73;108920;1258;73938;-28
2024/02/12 06:33:30;;;;;;;52.30;22.90;;;;;;;6.53;73.84;97458.59;108913;1259;74558;-28
2024/02/12 06:36:01;;;;;;;32.70;17.60;;;;;;;6.33;74.18;97460.48;108875;1259;73118;-28
2024/02/12 06:38:33;;;;;;;28.70;15.00;;;;;;;6.16;74.96;97462.34;109001;1258;59278;-28
2024/02/12 06:41:07;;;;;;;16.30;8.90;;;;;;;5.96;75.89;97456.83;108922;1260;58731;-28
2024/02/12 06:43:36;;;;;;;16.30;10.80;;;;;;;6.59;76.03;97452.85;108911;1259;73867;-28
2024/02/12 06:46:06;;;;;;;19.30;12.90;;;;;;;7.34;74.34;97457.95;108954;1260;74357;-28
2024/02/12 06:48:39;;;;;;;13.20;8.40;;;;;;;7.59;73.75;97459.59;108942;1260;72684;-28
2024/02/12 06:51:10;;;;;;;10.70;8.10;;;;;;;7.58;73.64;97461.54;108919;1258;60211;-28
2024/02/12 06:53:44;;;;;;;11.80;9.30;;;;;;;7.53;74.14;97466.83;108938;1260;58732;-28
2024/02/12 06:56:14;;;;;;;13.00;9.30;;;;;;;7.53;74.51;97467.95;108918;1259;73898;-28
2024/02/12 06:58:45;;;;;;;11.70;9.40;;;;;;;7.48;74.91;97469.42;108897;1259;74566;-28
2024/02/12 07:08:48;;;;;;;10.40;7.20;;;;;;;8.60;73.40;97458.79;102715;1295;598959;-28
2024/02/12 07:11:16;;;;;;;10.20;8.20;;;;;;;8.54;73.38;97452.09;104846;1270;61234;-26
2024/02/12 07:13:44;;;;;;;15.30;9.30;;;;;;;8.40;73.45;97446.15;104833;1266;61145;-27
2024/02/12 07:16:16;;;;;;;14.20;9.30;;;;;;;8.26;73.75;97448.55;105037;1270;72194;-25
2024/02/12 07:18:45;;;;;;;18.90;10.00;;;;;;;8.16;74.14;97447.60;104803;1267;74315;-27
2024/02/12 07:21:13;;;;;;;10.40;7.50;;;;;;;7.87;75.09;97447.07;104818;1267;71417;-27
2024/02/12 07:23:41;;;;;;;10.80;7.60;;;;;;;8.39;75.59;97448.17;105006;1264;61164;-28
2024/02/12 07:33:49;;;;;;;12.10;7.50;;;;;;;9.15;73.15;97441.02;102708;1290;599533;-26
2024/02/12 07:36:18;;;;;;;12.60;7.90;;;;;;;9.00;73.49;97440.27;104838;1266;61087;-25
2024/02/12 07:38:46;;;;;;;11.20;8.40;;;;;;;8.91;73.85;97438.56;104825;1270;61184;-25
2024/02/12 07:41:14;;;;;;;10.50;8.90;;;;;;;8.87;74.02;97439.67;104761;1266;70890;-25
2024/02/12 07:43:43;;;;;;;11.60;7.10;;;;;;;8.87;74.70;97441.98;105421;1259;74353;-25
2024/02/12 07:46:13;;;;;;;10.40;7.40;;;;;;;9.54;73.63;97445.63;105254;1259;72708;-25
2024/02/12 07:48:42;;;;;;;13.80;8.50;;;;;;;10.34;71.72;97445.88;105513;1261;61164;-25
2024/02/12 07:51:11;;;;;;;13.20;9.70;;;;;;;10.65;70.38;97445.89;105582;1257;61890;-25
2024/02/12 07:53:40;;;;;;;14.40;12.10;;;;;;;10.77;69.73;97444.09;105586;1261;74948;-25
2024/02/12 07:56:12;;;;;;;14.30;10.40;;;;;;;10.78;68.92;97444.02;105669;1257;77229;-25
2024/02/12 07:58:40;;;;;;;16.80;10.70;;;;;;;10.64;69.24;97444.23;105505;1262;73924;-25
2024/02/12 08:01:08;;;;;;;15.20;11.50;;;;;;;10.41;70.49;97442.66;105555;1262;61201;-26
2024/02/12 08:03:36;;;;;;;15.00;10.50;;;;;;;10.38;71.15;97442.71;105413;1257;61647;-25
2024/02/12 08:06:04;;;;;;;13.70;10.80;;;;;;;10.27;71.33;97439.13;105578;1260;74368;-25
2024/02/12 08:08:33;;;;;;;12.00;9.80;;;;;;;10.29;72.43;97443.80;105379;1262;76122;-25
2024/02/12 08:11:01;;;;;;;11.40;8.60;;;;;;;10.37;72.38;97443.85;105347;1264;71454;-25
2024/02/12 08:13:29;;;;;;;12.50;8.40;;;;;;;10.36;71.23;97446.13;105592;1257;61680;-25
2024/02/12 08:15:57;;;;;;;12.20;8.70;;;;;;;10.29;71.74;97448.65;105470;1256;61164;-25
2024/02/12 08:18:25;;;;;;;12.30;8.10;;;;;;;10.38;71.86;97450.63;105554;1256;75904;-25
2024/02/12 08:20:53;;;;;;;11.50;7.90;;;;;;;10.50;71.19;97448.88;105592;1257;77204;-25
2024/02/12 08:23:22;;;;;;;9.20;7.90;;;;;;;10.51;70.75;97454.87;105553;1256;74651;-25
2024/02/12 08:25:52;;;;;;;11.30;7.40;;;;;;;10.65;71.07;97456.27;105494;1256;61169;-25
2024/02/12 08:28:24;;;;;;;12.90;8.20;;;;;;;10.74;69.76;97454.91;105615;1257;62842;-25
2024/02/12 08:30:52;;;;;;;19.00;8.70;;;;;;;10.85;69.79;97455.59;105571;1261;73102;-28
2024/02/12 08:33:20;;;;;;;13.90;9.50;;;;;;;11.01;70.30;97460.79;105444;1256;74310;-28
2024/02/12 08:35:50;;;;;;;15.20;9.60;;;;;;;11.48;68.09;97458.66;105609;1257;72670;-25
2024/02/12 08:38:18;;;;;;;17.30;8.10;;;;;;;11.63;65.78;97456.71;105648;1256;61144;-25
2024/02/12 08:40:50;;;;;;;15.30;9.00;;;;;;;11.73;66.14;97459.77;105446;1257;61251;-25
2024/02/12 08:43:18;;;;;;;19.90;8.90;;;;;;;11.85;66.13;97457.70;105332;1257;75821;-25
2024/02/12 08:53:26;;;;;;;14.80;8.90;;;;;;;12.79;65.31;97463.83;102652;1294;598973;-25
2024/02/12 08:55:55;;;;;;;13.90;8.10;;;;;;;12.93;64.44;97462.90;104846;1272;62676;-25
2024/02/12 08:58:23;;;;;;;16.50;9.40;;;;;;;12.90;63.22;97459.11;104894;1266;61824;-25
2024/02/12 09:00:52;;;;;;;16.50;7.40;;;;;;;12.90;62.90;97459.65;105120;1263;72201;-25
2024/02/12 09:03:22;;;;;;;15.70;7.90;;;;;;;12.48;63.96;97461.30;105128;1269;77118;-24
2024/02/12 09:05:50;;;;;;;12.90;8.10;;;;;;;12.59;64.80;97467.15;105007;1269;75504;-25
2024/02/12 09:08:19;;;;;;;13.20;7.70;;;;;;;12.76;64.63;97466.35;105104;1263;241860;-25
2024/02/12 09:10:48;;;;;;;14.40;8.30;;;;;;;12.76;64.46;97465.07;105266;1266;61198;-25
2024/02/12 09:13:16;;;;;;;16.40;7.70;;;;;;;12.91;64.78;97462.83;105177;1266;73849;-26
2024/02/12 09:15:44;;;;;;;13.00;7.80;;;;;;;13.24;64.76;97461.73;105170;1263;74287;-27
2024/02/12 09:18:12;;;;;;;11.90;7.40;;;;;;;13.55;63.50;97455.41;105202;1260;72686;-26
2024/02/12 09:20:40;;;;;;;13.40;7.60;;;;;;;13.72;63.54;97455.08;105093;1261;62800;-26
2024/02/12 09:23:09;;;;;;;10.20;7.00;;;;;;;14.00;62.76;97455.61;104964;1266;62767;-26
2024/02/12 09:25:37;;;;;;;12.60;7.70;;;;;;;14.30;61.57;97453.55;105219;1266;74278;-26
2024/02/12 09:28:07;;;;;;;15.70;9.00;;;;;;;14.65;60.89;97452.67;105259;1266;77124;-26
2024/02/12 09:30:36;;;;;;;15.60;8.20;;;;;;;14.92;58.77;97455.48;105122;1266;74425;-27
2024/02/12 09:33:06;;;;;;;15.40;8.90;;;;;;;15.15;58.88;97451.88;105087;1263;61980;-26
2024/02/12 09:35:35;;;;;;;13.30;7.60;;;;;;;15.40;58.63;97455.54;104850;1263;61192;-26
2024/02/12 09:38:03;;;;;;;17.90;8.10;;;;;;;15.49;57.51;97450.56;105136;1262;75688;-26
2024/02/12 09:40:33;;;;;;;14.10;7.60;;;;;;;15.61;56.82;97449.08;105111;1263;74341;-26
2024/02/12 09:43:01;;;;;;;12.40;7.30;;;;;;;15.76;56.90;97450.63;104973;1264;73401;-26
2024/02/12 09:45:29;;;;;;;14.20;8.10;;;;;;;15.84;55.98;97452.51;104951;1264;62364;-26
2024/02/12 09:48:00;;;;;;;11.20;7.90;;;;;;;15.79;55.16;97455.23;105094;1269;61078;-26
2024/02/12 09:50:29;;;;;;;12.40;8.80;;;;;;;15.72;55.76;97453.68;105181;1263;73013;-26
2024/02/12 09:52:58;;;;;;;9.90;7.20;;;;;;;15.92;55.65;97450.24;105207;1263;77250;-26
2024/02/12 10:03:03;;;;;;;10.80;6.50;;;;;;;16.22;55.53;97437.48;102666;1293;600026;-25
2024/02/12 10:05:31;;;;;;;11.50;6.60;;;;;;;16.52;54.41;97439.15;104879;1270;62872;-25
2024/02/12 10:08:01;;;;;;;10.20;6.90;;;;;;;16.77;53.38;97432.89;104861;1266;61152;-25
2024/02/12 10:10:30;;;;;;;9.10;6.70;;;;;;;16.62;53.03;97433.44;104863;1270;75045;-25
2024/02/12 10:12:58;;;;;;;11.10;7.30;;;;;;;16.39;53.63;97429.81;104765;1272;74330;-25
2024/02/12 10:15:29;;;;;;;12.60;6.90;;;;;;;16.31;53.59;97431.55;104796;1267;75402;-25
2024/02/12 10:17:57;;;;;;;11.00;7.20;;;;;;;16.58;53.67;97427.62;104633;1269;61183;-25
2024/02/12 10:20:25;;;;;;;9.90;7.00;;;;;;;16.79;52.46;97429.66;105176;1263;61751;-25
2024/02/12 10:22:53;;;;;;;11.30;6.80;;;;;;;17.03;52.33;97435.51;105177;1267;73839;-25
2024/02/12 10:25:21;;;;;;;10.90;6.40;;;;;;;17.28;51.30;97434.33;105064;1263;77072;-25
2024/02/12 10:27:49;;;;;;;9.80;6.40;;;;;;;17.38;49.57;97430.77;104998;1268;74502;-25
2024/02/12 10:30:18;;;;;;;11.00;7.10;;;;;;;17.44;49.87;97427.77;105030;1267;61240;-25
2024/02/12 10:32:49;;;;;;;13.40;7.10;;;;;;;17.44;49.28;97427.64;104960;1263;61790;-25
2024/02/12 10:35:18;;;;;;;11.20;6.10;;;;;;;17.49;49.42;97422.60;104896;1263;73046;-25
2024/02/12 10:37:47;;;;;;;11.20;6.60;;;;;;;17.52;49.30;97421.48;104876;1263;77089;-25
2024/02/12 10:40:16;;;;;;;13.50;6.40;;;;;;;17.42;48.96;97419.39;104816;1264;75419;-25
2024/02/12 10:42:50;;;;;;;10.30;6.30;;;;;;;17.20;49.37;97413.71;104778;1268;61320;-25
2024/02/12 10:45:18;;;;;;;9.60;5.90;;;;;;;16.72;49.29;97413.79;104723;1263;61072;-25
2024/02/12 10:47:47;;;;;;;11.80;6.40;;;;;;;16.83;49.30;97412.11;104992;1263;75707;-25
2024/02/12 10:50:17;;;;;;;13.20;7.60;;;;;;;16.62;47.64;97414.77;104936;1263;77148;-25
2024/02/12 10:52:47;;;;;;;14.40;7.40;;;;;;;16.45;48.85;97413.29;104774;1263;71408;-25
2024/02/12 10:55:16;;;;;;;10.50;6.40;;;;;;;16.58;49.27;97409.15;104781;1264;62878;-25
2024/02/12 10:57:44;;;;;;;12.70;6.90;;;;;;;16.98;49.64;97407.02;105075;1269;61354;-25
2024/02/12 11:00:23;;;;;;;14.30;7.20;;;;;;;17.24;49.49;97402.30;104950;1267;74615;-25
2024/02/12 11:02:54;;;;;;;13.70;7.30;;;;;;;17.13;48.68;97403.92;104859;1269;75685;-25
2024/02/12 11:05:22;;;;;;;14.40;7.80;;;;;;;17.00;48.98;97405.09;104847;1270;75334;-25
2024/02/12 11:08:03;;;;;;;12.50;7.70;;;;;;;17.07;48.67;97402.13;105135;1263;62863;-26
2024/02/12 11:10:33;;;;;;;11.80;7.00;;;;;;;17.09;49.40;97400.30;104877;1269;62822;-25
2024/02/12 11:13:07;;;;;;;12.10;6.90;;;;;;;16.97;48.82;97398.41;104912;1264;74325;-26
2024/02/12 11:15:35;;;;;;;11.10;6.80;;;;;;;16.72;49.86;97395.88;104839;1263;77122;-26
2024/02/12 11:18:13;;;;;;;13.00;6.60;;;;;;;16.66;49.38;97394.38;105065;1263;74928;-25
2024/02/12 11:20:51;;;;;;;12.70;7.00;;;;;;;16.49;49.64;97389.23;104870;1270;61868;-25
2024/02/12 11:23:21;;;;;;;13.80;6.50;;;;;;;16.39;49.62;97385.15;104795;1273;62918;-26
2024/02/12 11:25:50;;;;;;;18.80;6.40;;;;;;;16.35;49.76;97387.05;104855;1263;75839;-25
2024/02/12 11:36:06;;;;;;;12.00;5.80;;;;;;;16.23;51.12;97383.58;102711;1292;599463;-25
2024/02/12 11:38:50;;;;;;;10.40;5.80;;;;;;;16.13;51.10;97383.52;104795;1266;62895;-24
2024/02/12 11:41:18;;;;;;;11.40;6.10;;;;;;;15.98;50.98;97381.27;104817;1264;62588;-25
2024/02/12 11:43:47;;;;;;;10.30;6.80;;;;;;;15.87;51.91;97380.48;104739;1266;71479;-25
2024/02/12 11:46:17;;;;;;;11.20;7.40;;;;;;;15.86;51.65;97382.40;105502;1260;75870;-25
2024/02/12 11:48:46;;;;;;;10.10;6.90;;;;;;;15.89;51.82;97386.73;105403;1256;229360;-26
2024/02/12 11:51:19;;;;;;;12.80;7.20;;;;;;;15.94;51.16;97389.31;105556;1259;62660;-26
2024/02/12 11:53:51;;;;;;;13.10;7.00;;;;;;;15.92;51.23;97386.71;105667;1261;61487;-25
2024/02/12 11:56:21;;;;;;;14.00;7.60;;;;;;;15.97;51.35;97388.55;105731;1257;71879;-25
2024/02/12 11:58:56;;;;;;;23.00;11.50;;;;;;;15.94;50.87;97383.17;105734;1256;77182;-25
2024/02/12 12:01:30;;;;;;;34.70;17.30;;;;;;;15.79;50.96;97382.04;105727;1259;75446;-25
2024/02/12 12:03:59;;;;;;;36.60;20.70;;;;;;;15.84;51.14;97384.89;105702;1253;61061;-26
2024/02/12 12:06:31;;;;;;;20.80;12.30;;;;;;;15.85;51.37;97381.42;105788;1256;62846;-26
2024/02/12 12:09:00;;;;;;;20.00;9.60;;;;;;;15.85;51.23;97379.04;105684;1254;75827;-26
2024/02/12 12:11:28;;;;;;;16.10;9.10;;;;;;;15.94;50.54;97383.26;105783;1259;77193;-26
2024/02/12 12:13:59;;;;;;;12.80;7.10;;;;;;;15.97;51.29;97379.05;105913;1256;74225;-25
2024/02/12 12:16:30;;;;;;;12.10;7.10;;;;;;;15.95;51.37;97385.66;105712;1251;61786;-25
2024/02/12 12:19:09;;;;;;;11.40;7.00;;;;;;;15.93;51.33;97387.65;105688;1253;61574;-25
2024/02/12 12:21:37;;;;;;;15.40;7.40;;;;;;;16.03;51.78;97394.24;105669;1251;76209;-25
2024/02/12 12:24:05;;;;;;;15.00;7.50;;;;;;;16.06;50.85;97392.44;105801;1258;75078;-25